sensor_id;sensor_type;location;lat;lon;timestamp;P1;durP1;ratioP1;P2;durP2;ratioP2
11334;SDS011;5722;42.620;23.374;2023-04-25T00:00:51;6.13;;;5.47;;
11334;SDS011;5722;42.620;23.374;2023-04-25T00:03:21;6.23;;;5.63;;
11334;SDS011;5722;42.620;23.374;2023-04-25T00:05:50;5.37;;;4.97;;
11334;SDS011;5722;42.620;23.374;2023-04-25T00:08:22;6.00;;;5.30;;
11334;SDS011;5722;42.620;23.374;2023-04-25T00:10:52;6.40;;;5.90;;
11334;SDS011;5722;42.620;23.374;2023-04-25T00:13:20;5.97;;;5.37;;
11334;SDS011;5722;42.620;23.374;2023-04-25T00:15:55;8.70;;;5.10;;
11334;SDS011;5722;42.620;23.374;2023-04-25T00:18:25;5.93;;;5.43;;
11334;SDS011;5722;42.620;23.374;2023-04-25T00:20:58;7.03;;;5.03;;
11334;SDS011;5722;42.620;23.374;2023-04-25T00:23:28;5.80;;;5.20;;
11334;SDS011;5722;42.620;23.374;2023-04-25T00:26:00;6.70;;;5.60;;
11334;SDS011;5722;42.620;23.374;2023-04-25T00:28:35;6.63;;;5.93;;
11334;SDS011;5722;42.620;23.374;2023-04-25T00:31:08;8.93;;;6.13;;
11334;SDS011;5722;42.620;23.374;2023-04-25T00:33:42;9.30;;;6.60;;
11334;SDS011;5722;42.620;23.374;2023-04-25T00:36:13;7.80;;;6.53;;
11334;SDS011;5722;42.620;23.374;2023-04-25T00:38:44;7.33;;;6.67;;
11334;SDS011;5722;42.620;23.374;2023-04-25T00:41:17;8.60;;;7.80;;
11334;SDS011;5722;42.620;23.374;2023-04-25T00:43:52;9.80;;;8.80;;
11334;SDS011;5722;42.620;23.374;2023-04-25T00:46:21;10.37;;;8.67;;
11334;SDS011;5722;42.620;23.374;2023-04-25T00:48:58;10.13;;;8.80;;
11334;SDS011;5722;42.620;23.374;2023-04-25T00:51:27;9.87;;;8.97;;
11334;SDS011;5722;42.620;23.374;2023-04-25T00:53:56;10.03;;;9.07;;
11334;SDS011;5722;42.620;23.374;2023-04-25T00:56:39;9.13;;;8.23;;
11334;SDS011;5722;42.620;23.374;2023-04-25T00:59:11;9.40;;;8.47;;
11334;SDS011;5722;42.620;23.374;2023-04-25T01:01:44;9.47;;;8.57;;
11334;SDS011;5722;42.620;23.374;2023-04-25T01:04:15;9.63;;;8.73;;
11334;SDS011;5722;42.620;23.374;2023-04-25T01:06:42;9.37;;;8.43;;
11334;SDS011;5722;42.620;23.374;2023-04-25T01:09:11;9.03;;;8.23;;
11334;SDS011;5722;42.620;23.374;2023-04-25T01:11:45;10.00;;;8.93;;
11334;SDS011;5722;42.620;23.374;2023-04-25T01:14:20;7.90;;;7.20;;
11334;SDS011;5722;42.620;23.374;2023-04-25T01:16:54;8.13;;;7.43;;
11334;SDS011;5722;42.620;23.374;2023-04-25T01:19:25;9.37;;;8.30;;
11334;SDS011;5722;42.620;23.374;2023-04-25T01:22:06;9.40;;;8.50;;
11334;SDS011;5722;42.620;23.374;2023-04-25T01:24:47;8.00;;;7.20;;
11334;SDS011;5722;42.620;23.374;2023-04-25T01:27:18;8.70;;;7.90;;
11334;SDS011;5722;42.620;23.374;2023-04-25T01:29:56;10.80;;;7.97;;
11334;SDS011;5722;42.620;23.374;2023-04-25T01:32:26;9.17;;;8.27;;
11334;SDS011;5722;42.620;23.374;2023-04-25T01:34:57;9.70;;;8.70;;
11334;SDS011;5722;42.620;23.374;2023-04-25T01:37:30;10.27;;;9.07;;
11334;SDS011;5722;42.620;23.374;2023-04-25T01:40:04;8.73;;;7.93;;
11334;SDS011;5722;42.620;23.374;2023-04-25T01:42:32;10.53;;;8.57;;
11334;SDS011;5722;42.620;23.374;2023-04-25T01:45:05;8.03;;;7.30;;
11334;SDS011;5722;42.620;23.374;2023-04-25T01:47:35;8.90;;;8.00;;
11334;SDS011;5722;42.620;23.374;2023-04-25T01:50:06;8.53;;;7.40;;
11334;SDS011;5722;42.620;23.374;2023-04-25T01:55:33;10.60;;;9.50;;
11334;SDS011;5722;42.620;23.374;2023-04-25T01:58:03;12.20;;;11.00;;
11334;SDS011;5722;42.620;23.374;2023-04-25T02:00:38;11.17;;;9.77;;
11334;SDS011;5722;42.620;23.374;2023-04-25T02:03:06;10.97;;;9.87;;
11334;SDS011;5722;42.620;23.374;2023-04-25T02:05:38;13.50;;;9.37;;
11334;SDS011;5722;42.620;23.374;2023-04-25T02:08:09;10.70;;;9.33;;
11334;SDS011;5722;42.620;23.374;2023-04-25T02:10:46;10.83;;;9.40;;
11334;SDS011;5722;42.620;23.374;2023-04-25T02:13:15;9.63;;;8.73;;
11334;SDS011;5722;42.620;23.374;2023-04-25T02:15:46;10.00;;;8.33;;
11334;SDS011;5722;42.620;23.374;2023-04-25T02:18:16;9.43;;;8.53;;
11334;SDS011;5722;42.620;23.374;2023-04-25T02:20:48;10.63;;;9.17;;
11334;SDS011;5722;42.620;23.374;2023-04-25T02:23:15;12.47;;;9.93;;
11334;SDS011;5722;42.620;23.374;2023-04-25T02:25:47;9.90;;;8.90;;
11334;SDS011;5722;42.620;23.374;2023-04-25T02:28:18;11.23;;;10.07;;
11334;SDS011;5722;42.620;23.374;2023-04-25T02:33:33;10.93;;;9.83;;
11334;SDS011;5722;42.620;23.374;2023-04-25T02:36:10;10.13;;;9.07;;
11334;SDS011;5722;42.620;23.374;2023-04-25T02:38:47;10.43;;;9.43;;
11334;SDS011;5722;42.620;23.374;2023-04-25T02:41:16;13.63;;;12.23;;
11334;SDS011;5722;42.620;23.374;2023-04-25T02:43:45;11.97;;;10.77;;
11334;SDS011;5722;42.620;23.374;2023-04-25T02:46:16;12.00;;;10.80;;
11334;SDS011;5722;42.620;23.374;2023-04-25T02:48:49;13.80;;;12.40;;
11334;SDS011;5722;42.620;23.374;2023-04-25T02:51:22;14.43;;;11.87;;
11334;SDS011;5722;42.620;23.374;2023-04-25T02:53:50;14.20;;;12.70;;
11334;SDS011;5722;42.620;23.374;2023-04-25T02:56:24;13.90;;;12.47;;
11334;SDS011;5722;42.620;23.374;2023-04-25T02:58:56;13.90;;;12.40;;
11334;SDS011;5722;42.620;23.374;2023-04-25T03:01:30;12.87;;;11.53;;
11334;SDS011;5722;42.620;23.374;2023-04-25T03:04:01;17.53;;;13.70;;
11334;SDS011;5722;42.620;23.374;2023-04-25T03:06:37;18.10;;;15.57;;
11334;SDS011;5722;42.620;23.374;2023-04-25T03:09:13;18.33;;;15.60;;
11334;SDS011;5722;42.620;23.374;2023-04-25T03:11:51;17.83;;;15.30;;
11334;SDS011;5722;42.620;23.374;2023-04-25T03:14:19;18.37;;;14.33;;
11334;SDS011;5722;42.620;23.374;2023-04-25T03:16:46;17.93;;;14.33;;
11334;SDS011;5722;42.620;23.374;2023-04-25T03:19:16;17.87;;;15.43;;
11334;SDS011;5722;42.620;23.374;2023-04-25T03:21:49;17.10;;;14.83;;
11334;SDS011;5722;42.620;23.374;2023-04-25T03:24:16;17.60;;;14.63;;
11334;SDS011;5722;42.620;23.374;2023-04-25T03:26:55;18.73;;;15.47;;
11334;SDS011;5722;42.620;23.374;2023-04-25T03:29:23;19.93;;;14.83;;
11334;SDS011;5722;42.620;23.374;2023-04-25T03:31:59;17.83;;;14.90;;
11334;SDS011;5722;42.620;23.374;2023-04-25T03:34:29;18.10;;;15.97;;
11334;SDS011;5722;42.620;23.374;2023-04-25T03:36:59;16.10;;;14.40;;
11334;SDS011;5722;42.620;23.374;2023-04-25T03:39:32;19.67;;;15.57;;
11334;SDS011;5722;42.620;23.374;2023-04-25T03:42:09;19.40;;;15.43;;
11334;SDS011;5722;42.620;23.374;2023-04-25T03:44:50;17.27;;;15.07;;
11334;SDS011;5722;42.620;23.374;2023-04-25T03:47:48;16.50;;;14.30;;
11334;SDS011;5722;42.620;23.374;2023-04-25T03:50:29;16.27;;;13.10;;
11334;SDS011;5722;42.620;23.374;2023-04-25T03:53:00;17.60;;;14.60;;
11334;SDS011;5722;42.620;23.374;2023-04-25T03:55:40;16.47;;;14.03;;
11334;SDS011;5722;42.620;23.374;2023-04-25T03:58:24;14.87;;;13.17;;
11334;SDS011;5722;42.620;23.374;2023-04-25T07:01:36;8.97;;;7.80;;
11334;SDS011;5722;42.620;23.374;2023-04-25T07:04:31;9.13;;;8.23;;
11334;SDS011;5722;42.620;23.374;2023-04-25T07:10:17;9.00;;;6.23;;
11334;SDS011;5722;42.620;23.374;2023-04-25T07:13:09;8.13;;;6.37;;
11334;SDS011;5722;42.620;23.374;2023-04-25T07:15:50;7.57;;;6.83;;
11334;SDS011;5722;42.620;23.374;2023-04-25T07:33:13;8.37;;;7.47;;
11334;SDS011;5722;42.620;23.374;2023-04-25T07:35:55;7.47;;;6.50;;
11334;SDS011;5722;42.620;23.374;2023-04-25T07:38:42;9.40;;;6.70;;
11334;SDS011;5722;42.620;23.374;2023-04-25T07:41:26;8.50;;;7.00;;
11334;SDS011;5722;42.620;23.374;2023-04-25T07:44:16;6.78;;;6.15;;
11334;SDS011;5722;42.620;23.374;2023-04-25T07:46:48;7.70;;;6.95;;
11334;SDS011;5722;42.620;23.374;2023-04-25T08:45:53;5.97;;;4.20;;
11334;SDS011;5722;42.620;23.374;2023-04-25T08:48:35;5.85;;;4.20;;
11334;SDS011;5722;42.620;23.374;2023-04-25T08:51:20;4.75;;;3.85;;
11334;SDS011;5722;42.620;23.374;2023-04-25T08:53:54;3.88;;;3.47;;
11334;SDS011;5722;42.620;23.374;2023-04-25T08:56:27;4.40;;;3.45;;
11334;SDS011;5722;42.620;23.374;2023-04-25T08:59:00;3.60;;;3.30;;
11334;SDS011;5722;42.620;23.374;2023-04-25T09:12:45;4.18;;;2.67;;
11334;SDS011;5722;42.620;23.374;2023-04-25T09:15:32;9.60;;;3.38;;
11334;SDS011;5722;42.620;23.374;2023-04-25T09:18:24;4.03;;;3.53;;
11334;SDS011;5722;42.620;23.374;2023-04-25T09:20:54;5.75;;;4.82;;
11334;SDS011;5722;42.620;23.374;2023-04-25T09:23:40;6.38;;;4.88;;
11334;SDS011;5722;42.620;23.374;2023-04-25T09:26:17;8.20;;;4.60;;
11334;SDS011;5722;42.620;23.374;2023-04-25T09:34:34;5.47;;;4.30;;
11334;SDS011;5722;42.620;23.374;2023-04-25T09:37:09;7.20;;;4.13;;
11334;SDS011;5722;42.620;23.374;2023-04-25T09:39:56;5.47;;;4.30;;
11334;SDS011;5722;42.620;23.374;2023-04-25T09:42:40;5.95;;;4.30;;
11334;SDS011;5722;42.620;23.374;2023-04-25T09:45:23;8.77;;;4.00;;
11334;SDS011;5722;42.620;23.374;2023-04-25T09:48:11;6.43;;;4.45;;
11334;SDS011;5722;42.620;23.374;2023-04-25T09:50:54;5.38;;;4.13;;
11334;SDS011;5722;42.620;23.374;2023-04-25T09:53:30;4.00;;;3.60;;
11334;SDS011;5722;42.620;23.374;2023-04-25T09:56:11;3.80;;;3.10;;
11334;SDS011;5722;42.620;23.374;2023-04-25T09:58:54;7.50;;;3.85;;
11334;SDS011;5722;42.620;23.374;2023-04-25T10:01:34;4.88;;;3.85;;
11334;SDS011;5722;42.620;23.374;2023-04-25T10:04:24;5.50;;;4.50;;
11334;SDS011;5722;42.620;23.374;2023-04-25T10:46:00;1.20;;;1.00;;
11334;SDS011;5722;42.620;23.374;2023-04-25T10:48:31;1.92;;;0.90;;
11334;SDS011;5722;42.620;23.374;2023-04-25T10:51:07;1.17;;;0.73;;
11334;SDS011;5722;42.620;23.374;2023-04-25T10:53:37;1.58;;;1.20;;
11334;SDS011;5722;42.620;23.374;2023-04-25T10:56:19;3.75;;;1.52;;
11334;SDS011;5722;42.620;23.374;2023-04-25T10:59:09;3.40;;;3.00;;
11334;SDS011;5722;42.620;23.374;2023-04-25T11:07:23;2.80;;;2.20;;
11334;SDS011;5722;42.620;23.374;2023-04-25T11:09:58;1.65;;;1.00;;
11334;SDS011;5722;42.620;23.374;2023-04-25T11:12:40;3.25;;;1.20;;
11334;SDS011;5722;42.620;23.374;2023-04-25T11:15:21;1.10;;;1.00;;
11334;SDS011;5722;42.620;23.374;2023-04-25T11:18:15;1.30;;;1.20;;
11334;SDS011;5722;42.620;23.374;2023-04-25T11:20:59;1.80;;;1.23;;
11334;SDS011;5722;42.620;23.374;2023-04-25T11:23:39;1.40;;;1.30;;
11334;SDS011;5722;42.620;23.374;2023-04-25T11:29:07;1.00;;;0.93;;
11334;SDS011;5722;42.620;23.374;2023-04-25T11:31:39;1.20;;;1.10;;
11334;SDS011;5722;42.620;23.374;2023-04-25T11:34:23;0.90;;;0.90;;
11334;SDS011;5722;42.620;23.374;2023-04-25T11:36:57;1.00;;;0.80;;
11334;SDS011;5722;42.620;23.374;2023-04-25T11:42:25;1.63;;;1.40;;
11334;SDS011;5722;42.620;23.374;2023-04-25T11:44:53;6.95;;;1.90;;
11334;SDS011;5722;42.620;23.374;2023-04-25T11:47:31;2.47;;;2.00;;
11334;SDS011;5722;42.620;23.374;2023-04-25T11:50:04;2.88;;;2.05;;
11334;SDS011;5722;42.620;23.374;2023-04-25T11:52:49;2.25;;;1.75;;
11334;SDS011;5722;42.620;23.374;2023-04-25T11:55:18;5.75;;;1.90;;
11334;SDS011;5722;42.620;23.374;2023-04-25T12:20:41;4.77;;;1.80;;
11334;SDS011;5722;42.620;23.374;2023-04-25T12:23:25;2.80;;;1.60;;
11334;SDS011;5722;42.620;23.374;2023-04-25T12:26:01;1.40;;;1.30;;
11334;SDS011;5722;42.620;23.374;2023-04-25T12:28:34;2.53;;;1.10;;
11334;SDS011;5722;42.620;23.374;2023-04-25T12:31:08;1.30;;;0.90;;
11334;SDS011;5722;42.620;23.374;2023-04-25T12:33:56;1.47;;;0.97;;
11334;SDS011;5722;42.620;23.374;2023-04-25T12:36:43;1.10;;;1.00;;
11334;SDS011;5722;42.620;23.374;2023-04-25T12:39:17;1.88;;;1.10;;
11334;SDS011;5722;42.620;23.374;2023-04-25T12:42:31;1.30;;;1.17;;
11334;SDS011;5722;42.620;23.374;2023-04-25T12:48:18;2.03;;;1.40;;
11334;SDS011;5722;42.620;23.374;2023-04-25T12:50:55;1.73;;;1.50;;
11334;SDS011;5722;42.620;23.374;2023-04-25T12:53:43;4.47;;;1.47;;
11334;SDS011;5722;42.620;23.374;2023-04-25T12:56:11;3.57;;;1.03;;
11334;SDS011;5722;42.620;23.374;2023-04-25T12:58:51;3.73;;;1.40;;
11334;SDS011;5722;42.620;23.374;2023-04-25T13:01:33;2.23;;;1.40;;
11334;SDS011;5722;42.620;23.374;2023-04-25T13:04:17;2.23;;;1.30;;
11334;SDS011;5722;42.620;23.374;2023-04-25T13:06:50;2.30;;;1.23;;
11334;SDS011;5722;42.620;23.374;2023-04-25T13:31:45;3.13;;;1.40;;
11334;SDS011;5722;42.620;23.374;2023-04-25T13:34:14;1.60;;;1.43;;
11334;SDS011;5722;42.620;23.374;2023-04-25T13:36:55;3.53;;;1.73;;
11334;SDS011;5722;42.620;23.374;2023-04-25T13:39:30;1.70;;;1.47;;
11334;SDS011;5722;42.620;23.374;2023-04-25T13:42:11;1.60;;;1.50;;
11334;SDS011;5722;42.620;23.374;2023-04-25T13:44:56;3.00;;;2.00;;
11334;SDS011;5722;42.620;23.374;2023-04-25T13:47:56;1.73;;;1.47;;
11334;SDS011;5722;42.620;23.374;2023-04-25T13:50:25;1.77;;;1.67;;
11334;SDS011;5722;42.620;23.374;2023-04-25T13:53:00;1.67;;;1.33;;
11334;SDS011;5722;42.620;23.374;2023-04-25T13:55:37;1.50;;;1.40;;
11334;SDS011;5722;42.620;23.374;2023-04-25T13:58:10;4.20;;;1.87;;
11334;SDS011;5722;42.620;23.374;2023-04-25T14:00:51;4.10;;;1.70;;
11334;SDS011;5722;42.620;23.374;2023-04-25T14:12:25;4.83;;;2.10;;
11334;SDS011;5722;42.620;23.374;2023-04-25T14:18:01;3.70;;;2.07;;
11334;SDS011;5722;42.620;23.374;2023-04-25T14:20:50;3.47;;;2.83;;
11334;SDS011;5722;42.620;23.374;2023-04-25T14:23:27;3.80;;;3.50;;
11334;SDS011;5722;42.620;23.374;2023-04-25T14:26:16;6.83;;;2.60;;
11334;SDS011;5722;42.620;23.374;2023-04-25T14:45:48;2.37;;;1.53;;
11334;SDS011;5722;42.620;23.374;2023-04-25T14:48:16;1.80;;;1.60;;
11334;SDS011;5722;42.620;23.374;2023-04-25T14:50:47;1.60;;;1.50;;
11334;SDS011;5722;42.620;23.374;2023-04-25T14:53:24;2.13;;;1.50;;
11334;SDS011;5722;42.620;23.374;2023-04-25T14:56:25;3.50;;;1.20;;
11334;SDS011;5722;42.620;23.374;2023-04-25T14:58:53;2.47;;;1.20;;
11334;SDS011;5722;42.620;23.374;2023-04-25T15:04:15;2.40;;;1.92;;
11334;SDS011;5722;42.620;23.374;2023-04-25T15:06:42;4.72;;;2.60;;
11334;SDS011;5722;42.620;23.374;2023-04-25T15:09:14;1.77;;;1.55;;
11334;SDS011;5722;42.620;23.374;2023-04-25T15:11:56;4.63;;;3.25;;
11334;SDS011;5722;42.620;23.374;2023-04-25T15:14:32;9.15;;;5.03;;
11334;SDS011;5722;42.620;23.374;2023-04-25T15:17:08;6.43;;;3.88;;
11334;SDS011;5722;42.620;23.374;2023-04-25T15:19:48;7.75;;;5.35;;
11334;SDS011;5722;42.620;23.374;2023-04-25T15:22:30;7.15;;;5.30;;
11334;SDS011;5722;42.620;23.374;2023-04-25T15:25:10;3.80;;;3.38;;
11334;SDS011;5722;42.620;23.374;2023-04-25T15:27:47;2.80;;;2.35;;
11334;SDS011;5722;42.620;23.374;2023-04-25T15:30:28;1.73;;;1.58;;
11334;SDS011;5722;42.620;23.374;2023-04-25T15:33:09;1.25;;;1.15;;
11334;SDS011;5722;42.620;23.374;2023-04-25T15:38:35;1.27;;;1.17;;
11334;SDS011;5722;42.620;23.374;2023-04-25T15:41:02;1.40;;;1.30;;
11334;SDS011;5722;42.620;23.374;2023-04-25T15:43:43;1.33;;;1.23;;
11334;SDS011;5722;42.620;23.374;2023-04-25T15:46:11;3.73;;;1.40;;
11334;SDS011;5722;42.620;23.374;2023-04-25T15:48:52;2.10;;;1.40;;
11334;SDS011;5722;42.620;23.374;2023-04-25T15:51:25;8.57;;;5.70;;
11334;SDS011;5722;42.620;23.374;2023-04-25T15:57:27;4.60;;;3.17;;
11334;SDS011;5722;42.620;23.374;2023-04-25T16:00:11;2.00;;;1.77;;
11334;SDS011;5722;42.620;23.374;2023-04-25T16:02:46;1.60;;;1.50;;
11334;SDS011;5722;42.620;23.374;2023-04-25T16:05:21;1.77;;;1.50;;
11334;SDS011;5722;42.620;23.374;2023-04-25T16:08:01;1.90;;;1.70;;
11334;SDS011;5722;42.620;23.374;2023-04-25T16:10:32;2.77;;;2.00;;
11334;SDS011;5722;42.620;23.374;2023-04-25T16:18:34;3.63;;;2.37;;
11334;SDS011;5722;42.620;23.374;2023-04-25T16:21:02;2.93;;;2.47;;
11334;SDS011;5722;42.620;23.374;2023-04-25T16:23:33;3.57;;;2.10;;
11334;SDS011;5722;42.620;23.374;2023-04-25T16:26:08;3.00;;;1.90;;
11334;SDS011;5722;42.620;23.374;2023-04-25T16:28:38;2.00;;;1.80;;
11334;SDS011;5722;42.620;23.374;2023-04-25T16:31:17;3.70;;;2.30;;
11334;SDS011;5722;42.620;23.374;2023-04-25T16:36:34;1.90;;;1.80;;
11334;SDS011;5722;42.620;23.374;2023-04-25T16:39:02;3.20;;;1.60;;
11334;SDS011;5722;42.620;23.374;2023-04-25T16:41:34;2.23;;;1.50;;
11334;SDS011;5722;42.620;23.374;2023-04-25T16:44:01;3.10;;;1.83;;
11334;SDS011;5722;42.620;23.374;2023-04-25T16:46:59;3.23;;;2.20;;
11334;SDS011;5722;42.620;23.374;2023-04-25T16:49:32;4.47;;;2.27;;
11334;SDS011;5722;42.620;23.374;2023-04-25T16:52:18;3.03;;;2.00;;
11334;SDS011;5722;42.620;23.374;2023-04-25T16:54:51;3.60;;;2.10;;
11334;SDS011;5722;42.620;23.374;2023-04-25T16:57:24;2.80;;;2.60;;
11334;SDS011;5722;42.620;23.374;2023-04-25T17:00:00;2.97;;;2.63;;
11334;SDS011;5722;42.620;23.374;2023-04-25T17:02:30;4.00;;;2.90;;
11334;SDS011;5722;42.620;23.374;2023-04-25T17:05:00;4.23;;;3.70;;
11334;SDS011;5722;42.620;23.374;2023-04-25T17:16:13;5.27;;;4.77;;
11334;SDS011;5722;42.620;23.374;2023-04-25T17:18:54;5.27;;;4.13;;
11334;SDS011;5722;42.620;23.374;2023-04-25T17:21:30;5.20;;;4.70;;
11334;SDS011;5722;42.620;23.374;2023-04-25T17:24:01;5.53;;;4.43;;
11334;SDS011;5722;42.620;23.374;2023-04-25T17:26:42;6.23;;;5.20;;
11334;SDS011;5722;42.620;23.374;2023-04-25T17:29:33;4.17;;;3.40;;
11334;SDS011;5722;42.620;23.374;2023-04-25T17:38:20;4.27;;;3.87;;
11334;SDS011;5722;42.620;23.374;2023-04-25T17:41:13;6.97;;;4.53;;
11334;SDS011;5722;42.620;23.374;2023-04-25T17:44:03;5.83;;;4.23;;
11334;SDS011;5722;42.620;23.374;2023-04-25T17:46:50;5.33;;;3.90;;
11334;SDS011;5722;42.620;23.374;2023-04-25T17:49:33;4.20;;;3.40;;
11334;SDS011;5722;42.620;23.374;2023-04-25T17:52:14;3.40;;;3.10;;
11334;SDS011;5722;42.620;23.374;2023-04-25T18:03:30;3.07;;;2.77;;
11334;SDS011;5722;42.620;23.374;2023-04-25T18:06:04;3.50;;;3.20;;
11334;SDS011;5722;42.620;23.374;2023-04-25T18:09:06;3.40;;;3.10;;
11334;SDS011;5722;42.620;23.374;2023-04-25T18:11:44;3.53;;;2.90;;
11334;SDS011;5722;42.620;23.374;2023-04-25T18:14:29;4.13;;;3.00;;
11334;SDS011;5722;42.620;23.374;2023-04-25T18:20:09;3.43;;;3.13;;
11334;SDS011;5722;42.620;23.374;2023-04-25T18:26:19;3.43;;;3.10;;
11334;SDS011;5722;42.620;23.374;2023-04-25T18:29:11;3.30;;;3.00;;
11334;SDS011;5722;42.620;23.374;2023-04-25T18:31:56;3.20;;;2.83;;
11334;SDS011;5722;42.620;23.374;2023-04-25T18:56:27;3.60;;;3.30;;
11334;SDS011;5722;42.620;23.374;2023-04-25T21:45:25;20.27;;;13.43;;
11334;SDS011;5722;42.620;23.374;2023-04-25T21:48:01;19.90;;;13.20;;
11334;SDS011;5722;42.620;23.374;2023-04-25T21:54:03;14.20;;;9.67;;
11334;SDS011;5722;42.620;23.374;2023-04-25T21:56:37;11.63;;;8.80;;
11334;SDS011;5722;42.620;23.374;2023-04-25T21:59:31;9.30;;;7.63;;
11334;SDS011;5722;42.620;23.374;2023-04-25T22:02:14;8.57;;;6.90;;
11334;SDS011;5722;42.620;23.374;2023-04-25T22:04:45;9.47;;;6.93;;
11334;SDS011;5722;42.620;23.374;2023-04-25T22:07:29;7.63;;;6.57;;
11334;SDS011;5722;42.620;23.374;2023-04-25T22:10:08;6.37;;;5.63;;
11334;SDS011;5722;42.620;23.374;2023-04-25T22:13:04;6.90;;;5.37;;
11334;SDS011;5722;42.620;23.374;2023-04-25T22:18:52;7.43;;;5.00;;
11334;SDS011;5722;42.620;23.374;2023-04-25T22:27:29;6.43;;;4.57;;
11334;SDS011;5722;42.620;23.374;2023-04-25T22:30:06;5.87;;;5.20;;
11334;SDS011;5722;42.620;23.374;2023-04-25T22:39:13;5.60;;;5.00;;
11334;SDS011;5722;42.620;23.374;2023-04-25T22:50:10;6.70;;;6.00;;
11334;SDS011;5722;42.620;23.374;2023-04-25T23:47:56;7.10;;;6.20;;
11334;SDS011;5722;42.620;23.374;2023-04-25T23:50:39;7.73;;;6.40;;
